Time;durP1;ratioP1;P1;durP2;ratioP2;P2;SDS_P1;SDS_P2;PMS_P1;PMS_P2;Temp;Humidity;BMP_temperature;BMP_pressure;BME280_temperature;BME280_humidity;BME280_pressure;Samples;Min_cycle;Max_cycle;Signal;HPM_P1;HPM_P2
2023/05/09 00:00:32;;;;;;;18.48;16.80;;;13.20;99.90;;;13.74;100.00;98213.31;5104143;28;20263;-65
2023/05/09 00:03:05;;;;;;;19.35;17.65;;;13.00;99.90;;;13.77;100.00;98203.19;5118086;28;20214;-65
2023/05/09 00:05:38;;;;;;;20.00;18.23;;;13.00;99.90;;;13.67;100.00;98209.53;5113243;28;20653;-66
2023/05/09 00:08:11;;;;;;;18.70;16.90;;;13.00;99.90;;;13.68;100.00;98213.03;5118177;28;20223;-65
2023/05/09 00:10:44;;;;;;;17.85;16.25;;;12.90;99.90;;;13.65;100.00;98210.25;5121482;28;20743;-65
2023/05/09 00:13:17;;;;;;;18.42;16.73;;;12.90;99.90;;;13.63;100.00;98206.75;5119867;28;20204;-64
2023/05/09 00:15:53;;;;;;;18.75;17.08;;;12.90;99.90;;;13.60;100.00;98204.03;5114781;28;20205;-65
2023/05/09 00:18:27;;;;;;;17.58;15.98;;;12.80;99.90;;;13.55;100.00;98195.22;5117551;29;20208;-64
2023/05/09 00:21:01;;;;;;;19.63;17.60;;;12.80;99.90;;;13.49;100.00;98196.66;5117241;28;20201;-63
2023/05/09 00:23:35;;;;;;;19.65;17.85;;;12.80;99.90;;;13.33;100.00;98199.22;5118245;28;20594;-64
2023/05/09 00:26:08;;;;;;;18.85;16.98;;;12.70;99.90;;;13.35;100.00;98196.75;5113709;28;20204;-65
2023/05/09 00:28:41;;;;;;;20.30;18.35;;;12.60;99.90;;;13.34;100.00;98193.31;5116113;29;20229;-65
2023/05/09 00:31:15;;;;;;;19.48;17.75;;;12.60;99.90;;;13.32;100.00;98194.91;5114422;28;20227;-65
2023/05/09 00:33:48;;;;;;;21.00;18.85;;;12.60;99.90;;;13.27;100.00;98191.22;5116398;28;20196;-65
2023/05/09 00:36:21;;;;;;;19.15;17.45;;;12.60;99.90;;;13.20;100.00;98186.56;5120387;28;20205;-64
2023/05/09 00:38:54;;;;;;;20.48;18.65;;;12.60;99.90;;;13.22;100.00;98175.56;5117766;28;20213;-65
2023/05/09 00:41:27;;;;;;;21.27;19.27;;;12.60;99.90;;;13.21;100.00;98178.03;5118480;28;20213;-64
2023/05/09 00:44:00;;;;;;;17.85;16.23;;;12.60;99.90;;;13.26;100.00;98179.19;5120032;28;20606;-65
2023/05/09 00:46:34;;;;;;;18.02;16.30;;;12.60;99.90;;;13.31;100.00;98177.75;5118966;28;20576;-65
2023/05/09 00:49:08;;;;;;;21.05;19.13;;;12.60;99.90;;;13.22;100.00;98165.31;5113316;28;20264;-63
2023/05/09 00:51:41;;;;;;;22.02;19.88;;;12.60;99.90;;;13.26;100.00;98167.25;5120249;28;20211;-65
2023/05/09 00:54:14;;;;;;;18.77;17.10;;;12.60;99.90;;;13.30;100.00;98168.28;5115215;28;20208;-64
2023/05/09 00:56:48;;;;;;;20.88;18.90;;;12.60;99.90;;;13.32;100.00;98156.41;5119759;28;20205;-64
2023/05/09 00:59:21;;;;;;;20.42;18.65;;;12.60;99.90;;;13.34;100.00;98159.94;5118238;28;20676;-64
2023/05/09 01:01:55;;;;;;;20.13;18.02;;;12.60;99.90;;;13.32;100.00;98158.09;5118489;28;20207;-64
2023/05/09 01:04:29;;;;;;;19.52;17.83;;;12.60;99.90;;;13.34;100.00;98159.06;5111321;28;20214;-65
2023/05/09 01:07:06;;;;;;;21.63;19.63;;;12.60;99.90;;;13.35;100.00;98150.53;5119687;29;20222;-65
2023/05/09 01:09:48;;;;;;;22.27;20.17;;;12.60;99.90;;;13.35;100.00;98146.28;5105822;28;20339;-65
2023/05/09 01:12:32;;;;;;;21.45;19.52;;;12.60;99.90;;;13.22;100.00;98137.06;5117886;28;20200;-64
2023/05/09 01:15:14;;;;;;;20.98;19.08;;;12.60;99.90;;;13.23;100.00;98131.13;5115874;28;20211;-64
2023/05/09 01:17:55;;;;;;;20.83;18.83;;;12.50;99.90;;;13.21;100.00;98129.28;5118782;28;20236;-64
2023/05/09 01:20:35;;;;;;;21.05;19.05;;;12.50;99.90;;;13.23;100.00;98130.25;5115554;28;20228;-64
2023/05/09 01:23:34;;;;;;;19.92;18.02;;;12.50;99.90;;;13.24;100.00;98127.72;5118225;28;20549;-64
2023/05/09 01:26:20;;;;;;;22.48;20.42;;;12.50;99.90;;;13.22;100.00;98128.44;5119273;28;20208;-63
2023/05/09 01:29:34;;;;;;;20.63;18.73;;;12.50;99.90;;;13.20;100.00;98118.13;5116684;28;20229;-64
2023/05/09 01:32:10;;;;;;;19.05;17.33;;;12.50;99.90;;;13.22;100.00;98121.66;5109016;28;20197;-64
2023/05/09 01:34:44;;;;;;;19.15;17.35;;;12.50;99.90;;;13.21;100.00;98124.13;5109823;28;20585;-65
2023/05/09 01:37:24;;;;;;;20.15;18.35;;;12.50;99.90;;;13.19;100.00;98128.31;5109525;28;20293;-64
2023/05/09 01:40:00;;;;;;;22.38;20.02;;;12.50;99.90;;;13.19;100.00;98125.72;5119746;28;20692;-63
2023/05/09 01:42:42;;;;;;;20.50;18.63;;;12.50;99.90;;;13.17;100.00;98123.09;5117099;29;20204;-64
2023/05/09 01:45:18;;;;;;;22.48;20.38;;;12.50;99.90;;;13.18;100.00;98121.41;5111069;28;20201;-64
2023/05/09 01:47:51;;;;;;;20.33;18.42;;;12.50;99.90;;;13.17;100.00;98130.81;5116447;28;20200;-65
2023/05/09 01:50:26;;;;;;;22.67;20.42;;;12.40;99.90;;;13.14;100.00;98137.47;5116895;29;20240;-64
2023/05/09 01:53:01;;;;;;;21.23;19.23;;;12.40;99.90;;;13.17;100.00;98132.50;5109843;28;20573;-64
2023/05/09 01:55:36;;;;;;;22.00;19.92;;;12.50;99.90;;;13.21;100.00;98127.56;5117253;28;20204;-64
2023/05/09 01:58:10;;;;;;;22.38;20.23;;;12.50;99.90;;;13.22;100.00;98133.59;5116928;28;20208;-64
2023/05/09 02:00:47;;;;;;;21.33;19.33;;;12.50;99.90;;;13.20;100.00;98128.41;5116263;28;20216;-63
2023/05/09 02:03:21;;;;;;;19.60;17.80;;;12.40;99.90;;;13.18;100.00;98132.56;5113117;28;20212;-64
2023/05/09 02:05:56;;;;;;;20.63;18.73;;;12.40;99.90;;;13.17;100.00;98129.94;5118764;28;20212;-63
2023/05/09 02:08:30;;;;;;;21.83;19.80;;;12.40;99.90;;;13.21;100.00;98126.69;5110981;28;20209;-63
2023/05/09 02:11:03;;;;;;;21.10;19.13;;;12.40;99.90;;;13.18;100.00;98126.53;5117934;28;20218;-64
2023/05/09 02:13:37;;;;;;;19.58;17.83;;;12.30;99.90;;;13.16;100.00;98125.56;5115885;28;20212;-64
2023/05/09 02:16:11;;;;;;;17.95;16.38;;;12.30;99.90;;;12.91;100.00;98123.47;5117851;28;20200;-64
2023/05/09 02:18:45;;;;;;;18.42;16.60;;;12.10;99.90;;;12.88;100.00;98131.88;5116712;28;20535;-65
2023/05/09 02:21:19;;;;;;;17.35;15.85;;;12.10;99.90;;;12.83;100.00;98130.75;5108484;28;20511;-65
2023/05/09 02:23:52;;;;;;;18.98;17.27;;;12.00;99.90;;;12.81;100.00;98133.22;5112675;28;20216;-64
2023/05/09 02:26:26;;;;;;;19.40;17.55;;;12.00;99.90;;;12.79;100.00;98136.50;5113797;28;20205;-64
2023/05/09 02:29:00;;;;;;;18.35;16.73;;;12.00;99.90;;;12.80;100.00;98125.44;5116068;28;20239;-64
2023/05/09 02:31:35;;;;;;;18.20;16.60;;;12.00;99.90;;;12.78;100.00;98121.91;5115939;28;20216;-64
2023/05/09 02:34:09;;;;;;;20.23;18.42;;;12.00;99.90;;;12.73;100.00;98121.66;5112040;28;20197;-65
2023/05/09 02:36:43;;;;;;;20.52;18.52;;;12.00;99.90;;;12.67;100.00;98130.72;5105852;28;20615;-63
2023/05/09 02:39:16;;;;;;;19.10;17.40;;;11.90;99.90;;;12.67;100.00;98123.03;5106663;28;20227;-62
2023/05/09 02:41:50;;;;;;;19.50;17.70;;;11.90;99.90;;;12.66;100.00;98121.28;5102358;28;20209;-62
2023/05/09 02:44:23;;;;;;;21.85;19.55;;;11.90;99.90;;;12.56;100.00;98123.38;5105305;28;20549;-64
2023/05/09 02:46:57;;;;;;;19.38;17.67;;;11.80;99.90;;;12.48;100.00;98123.75;5101181;28;20573;-64
2023/05/09 02:49:30;;;;;;;18.10;16.58;;;11.80;99.90;;;12.50;100.00;98128.13;5117714;28;20235;-65
2023/05/09 02:52:05;;;;;;;20.40;18.40;;;11.80;99.90;;;12.54;100.00;98124.94;5117346;28;20207;-64
2023/05/09 02:54:38;;;;;;;20.30;18.50;;;11.80;99.90;;;12.47;100.00;98124.53;5116446;28;20232;-64
2023/05/09 02:57:11;;;;;;;21.83;19.63;;;11.80;99.90;;;12.48;100.00;98111.81;5113345;28;20209;-64
2023/05/09 02:59:44;;;;;;;22.13;20.13;;;11.70;99.90;;;12.41;100.00;98122.50;5116674;28;20221;-65
2023/05/09 03:02:18;;;;;;;21.23;19.08;;;11.70;99.90;;;12.31;100.00;98120.28;5117876;28;20196;-61
2023/05/09 03:04:52;;;;;;;20.52;18.73;;;11.60;99.90;;;12.31;100.00;98123.72;5110873;28;20261;-63
2023/05/09 03:07:25;;;;;;;18.45;16.75;;;11.60;99.90;;;12.36;100.00;98118.81;5116764;28;20209;-65
2023/05/09 03:09:58;;;;;;;19.48;17.52;;;11.60;99.90;;;12.40;100.00;98115.63;5113701;28;20228;-64
2023/05/09 03:12:31;;;;;;;18.27;16.58;;;11.60;99.90;;;12.45;100.00;98113.31;5111809;28;20214;-64
2023/05/09 03:15:05;;;;;;;17.75;16.08;;;11.70;99.90;;;12.45;100.00;98116.78;5113214;28;20507;-63
2023/05/09 03:17:40;;;;;;;18.92;17.02;;;11.70;99.90;;;12.46;100.00;98110.84;5117757;28;20219;-63
2023/05/09 03:20:13;;;;;;;18.17;16.58;;;11.70;99.90;;;12.48;100.00;98109.25;5119924;28;20730;-64
2023/05/09 03:22:47;;;;;;;18.05;16.25;;;11.70;99.90;;;12.47;100.00;98102.34;5118214;28;20209;-63
2023/05/09 03:25:21;;;;;;;17.45;15.60;;;11.70;99.90;;;12.34;100.00;98110.19;5118305;28;20292;-64
2023/05/09 03:27:54;;;;;;;17.38;15.70;;;11.60;99.90;;;12.27;100.00;98103.81;5129475;28;20205;-64
2023/05/09 03:30:27;;;;;;;17.02;15.40;;;11.50;99.90;;;12.29;100.00;98103.91;5114282;28;21979;-63
2023/05/09 03:33:03;;;;;;;18.02;16.38;;;11.50;99.90;;;12.21;100.00;98097.50;5117630;28;20207;-63
2023/05/09 03:35:36;;;;;;;19.48;17.58;;;11.50;99.90;;;12.23;100.00;98095.91;5117775;28;21050;-65
2023/05/09 03:38:09;;;;;;;19.27;17.48;;;11.50;99.90;;;12.15;100.00;98095.47;5112764;28;20223;-63
2023/05/09 03:40:42;;;;;;;20.10;18.10;;;11.50;99.90;;;12.08;100.00;98099.41;5116684;28;20212;-65
2023/05/09 03:43:15;;;;;;;19.63;17.73;;;11.40;99.90;;;12.16;100.00;98095.56;5111474;28;20233;-65
2023/05/09 03:45:48;;;;;;;18.65;16.95;;;11.50;99.90;;;12.12;100.00;98092.75;5129111;28;20695;-65
2023/05/09 03:48:23;;;;;;;20.40;18.40;;;11.40;99.90;;;12.10;100.00;98084.09;5129635;28;20593;-65
2023/05/09 03:50:56;;;;;;;20.15;18.13;;;11.40;99.90;;;12.06;100.00;98077.91;5117638;28;20318;-64
2023/05/09 03:53:29;;;;;;;21.17;19.00;;;11.40;99.90;;;11.82;100.00;98074.00;5119298;28;20208;-65
2023/05/09 03:56:02;;;;;;;20.85;18.95;;;11.30;99.90;;;11.93;100.00;98072.91;5115271;28;20205;-64
2023/05/09 03:58:35;;;;;;;20.00;18.10;;;11.30;99.90;;;12.00;100.00;98074.16;5113562;28;20509;-64
2023/05/09 04:01:08;;;;;;;21.38;19.17;;;11.30;99.90;;;11.92;100.00;98063.47;5111271;28;20208;-65
2023/05/09 04:03:42;;;;;;;20.10;18.10;;;11.30;99.90;;;11.86;100.00;98068.25;5110393;28;20210;-64
2023/05/09 04:06:15;;;;;;;21.38;19.27;;;11.30;99.90;;;11.90;100.00;98065.97;5109586;28;20200;-64
2023/05/09 04:08:48;;;;;;;20.95;19.00;;;11.30;99.90;;;12.03;100.00;98071.75;5109574;28;20229;-65
2023/05/09 04:11:21;;;;;;;21.70;19.60;;;11.40;99.90;;;12.13;100.00;98063.75;5111438;28;20224;-65
2023/05/09 04:13:55;;;;;;;20.60;18.52;;;11.50;99.90;;;12.17;100.00;98070.81;5111855;28;20207;-64
2023/05/09 04:16:28;;;;;;;21.35;19.20;;;11.50;99.90;;;12.14;100.00;98068.97;5112144;28;20213;-65
2023/05/09 04:19:02;;;;;;;23.83;21.55;;;11.50;99.90;;;12.08;100.00;98075.47;5113478;28;20232;-63
2023/05/09 04:21:36;;;;;;;24.33;21.75;;;11.50;99.90;;;12.18;100.00;98080.25;5110117;28;20201;-63
2023/05/09 04:24:09;;;;;;;22.98;20.65;;;11.50;99.90;;;12.11;100.00;98080.75;5115326;28;20215;-67
2023/05/09 04:26:42;;;;;;;24.08;21.67;;;11.50;99.90;;;12.14;100.00;98086.03;5112296;28;20217;-63
2023/05/09 04:29:15;;;;;;;22.67;20.48;;;11.50;99.90;;;12.25;100.00;98084.06;5110029;28;20591;-67
2023/05/09 04:31:48;;;;;;;23.50;21.10;;;11.60;99.90;;;12.36;100.00;98077.81;5109671;28;20228;-64
2023/05/09 04:34:24;;;;;;;21.48;19.17;;;11.70;99.90;;;12.34;100.00;98074.31;5112993;28;20228;-63
2023/05/09 04:36:57;;;;;;;22.48;20.27;;;11.60;99.90;;;12.38;100.00;98076.22;5112715;28;20200;-63
2023/05/09 04:39:30;;;;;;;20.13;18.17;;;11.70;99.90;;;12.44;100.00;98067.97;5109556;28;20232;-63
2023/05/09 04:42:04;;;;;;;22.23;19.98;;;11.70;99.90;;;12.42;100.00;98078.16;5110703;28;20208;-63
2023/05/09 04:44:37;;;;;;;21.83;19.55;;;11.70;99.90;;;12.49;100.00;98077.66;5109695;28;20650;-65
2023/05/09 04:47:10;;;;;;;22.77;20.60;;;11.80;99.90;;;12.56;100.00;98086.56;5112088;28;20233;-64
2023/05/09 04:49:44;;;;;;;21.33;19.27;;;11.90;99.90;;;12.65;100.00;98078.47;5116512;28;20228;-64
2023/05/09 04:52:17;;;;;;;22.30;20.10;;;11.90;99.90;;;12.70;100.00;98079.59;5115285;28;20238;-63
2023/05/09 04:54:50;;;;;;;22.13;19.92;;;12.00;99.90;;;12.74;100.00;98081.53;5115226;28;20215;-64
2023/05/09 04:57:24;;;;;;;21.67;19.58;;;12.00;99.90;;;12.81;100.00;98078.47;5114831;28;20212;-63
2023/05/09 04:59:57;;;;;;;23.33;21.02;;;12.00;99.90;;;12.80;100.00;98081.84;5111962;28;20233;-64
2023/05/09 05:02:31;;;;;;;21.13;19.13;;;12.00;99.90;;;12.84;100.00;98084.63;5114093;28;20274;-64
2023/05/09 05:05:06;;;;;;;22.10;19.95;;;12.10;99.90;;;12.90;100.00;98080.63;5114770;28;20290;-63
2023/05/09 05:07:45;;;;;;;22.92;20.67;;;12.10;99.90;;;12.96;100.00;98081.84;5114940;28;20731;-63
2023/05/09 05:10:18;;;;;;;20.42;18.42;;;12.20;99.90;;;13.07;100.00;98082.38;5116595;28;20776;-66
2023/05/09 05:12:51;;;;;;;21.20;19.30;;;12.30;99.90;;;13.19;100.00;98084.66;5115959;28;20204;-64
2023/05/09 05:15:25;;;;;;;22.15;20.05;;;12.30;99.90;;;13.27;100.00;98085.97;5118500;28;20338;-63
2023/05/09 05:17:58;;;;;;;21.50;19.33;;;12.40;99.90;;;13.35;100.00;98089.81;5112721;28;20201;-63
2023/05/09 05:20:33;;;;;;;21.00;18.98;;;12.40;99.90;;;13.44;100.00;98090.25;5109193;28;20229;-67
2023/05/09 05:23:06;;;;;;;18.10;16.30;;;12.50;99.90;;;13.51;100.00;98089.75;5114923;28;20550;-64
2023/05/09 05:25:39;;;;;;;19.30;17.42;;;12.60;99.90;;;13.60;100.00;98085.88;5117311;28;20212;-64
2023/05/09 05:28:12;;;;;;;19.52;17.73;;;12.60;99.90;;;13.68;100.00;98087.16;5109792;28;20211;-64
2023/05/09 05:30:45;;;;;;;16.88;15.27;;;12.80;99.90;;;13.81;100.00;98080.91;5114389;28;20245;-64
2023/05/09 05:33:18;;;;;;;17.08;15.38;;;12.80;99.90;;;13.82;100.00;98075.84;5109910;28;20228;-64
2023/05/09 05:35:53;;;;;;;17.20;15.70;;;12.90;99.90;;;14.04;100.00;98081.97;5109573;28;20875;-64
2023/05/09 05:38:26;;;;;;;18.55;16.85;;;13.00;99.90;;;14.23;100.00;98076.03;5117683;28;20208;-63
2023/05/09 05:40:59;;;;;;;20.25;18.10;;;13.20;99.90;;;14.28;100.00;98077.09;5108177;28;20215;-63
2023/05/09 05:43:32;;;;;;;18.42;16.73;;;13.20;99.90;;;14.27;100.00;98077.91;5110828;28;20213;-64
2023/05/09 05:46:05;;;;;;;19.90;17.95;;;13.30;99.90;;;14.29;100.00;98076.31;5117151;28;20208;-63
2023/05/09 05:48:38;;;;;;;20.20;18.30;;;13.30;99.90;;;14.43;100.00;98083.81;5114537;28;20236;-63
2023/05/09 05:51:12;;;;;;;19.35;17.65;;;13.40;99.90;;;14.57;100.00;98079.34;5112817;28;20229;-63
2023/05/09 05:53:45;;;;;;;20.38;18.48;;;13.50;99.90;;;14.80;100.00;98072.66;5111363;28;20196;-63
2023/05/09 05:56:18;;;;;;;20.60;18.60;;;13.70;99.90;;;15.25;97.31;98067.72;5110859;28;20689;-64
2023/05/09 05:58:52;;;;;;;19.40;17.60;;;14.00;99.90;;;15.72;94.26;98061.06;5133189;28;20224;-63
2023/05/09 06:01:25;;;;;;;19.42;17.63;;;14.40;99.90;;;16.06;92.29;98064.13;5118014;28;20197;-66
2023/05/09 06:03:58;;;;;;;20.33;18.40;;;14.70;99.90;;;16.34;90.31;98059.19;5113723;28;20320;-64
2023/05/09 06:06:33;;;;;;;20.50;18.60;;;14.90;99.90;;;16.52;90.33;98053.81;5113065;28;20220;-65
2023/05/09 06:09:06;;;;;;;20.83;18.83;;;15.10;99.90;;;17.16;87.50;98049.22;5114689;28;20648;-64
2023/05/09 06:11:39;;;;;;;22.75;20.48;;;15.70;99.90;;;17.44;84.52;98046.72;5112761;28;20235;-63
2023/05/09 06:14:12;;;;;;;24.10;21.80;;;16.10;99.90;;;17.35;79.27;98036.09;5115633;28;20208;-65
2023/05/09 06:16:45;;;;;;;24.65;22.25;;;16.00;99.90;;;17.43;78.04;98046.69;5112979;28;20201;-66
2023/05/09 06:19:18;;;;;;;23.20;21.00;;;16.10;99.90;;;17.68;76.45;98036.28;5115144;28;20704;-63
2023/05/09 06:21:53;;;;;;;25.00;22.70;;;16.20;99.90;;;18.37;71.34;98035.88;5114744;28;20201;-63
2023/05/09 06:24:26;;;;;;;23.38;20.95;;;16.90;99.90;;;19.16;70.63;98022.50;5117618;28;20756;-63
2023/05/09 06:27:08;;;;;;;23.15;21.05;;;17.50;99.90;;;19.70;67.71;98020.41;5115388;28;20288;-64
2023/05/09 06:29:41;;;;;;;22.88;20.77;;;17.90;99.90;;;20.11;64.69;98017.88;5115101;28;20229;-65
2023/05/09 06:32:17;;;;;;;23.52;21.33;;;18.30;99.90;;;20.58;60.70;98015.47;5109919;28;20232;-65
2023/05/09 06:34:51;;;;;;;22.15;20.15;;;18.60;99.90;;;21.04;59.44;98007.66;5117711;28;20204;-63
2023/05/09 06:37:25;;;;;;;24.25;21.95;;;19.10;99.90;;;20.87;56.53;98017.75;5112377;28;20651;-63
2023/05/09 06:39:58;;;;;;;22.48;20.27;;;19.00;99.90;;;21.25;55.36;98013.22;5112568;28;20228;-63
2023/05/09 06:42:32;;;;;;;23.65;21.35;;;19.00;99.90;;;20.89;54.79;98010.84;5119069;28;20626;-63
2023/05/09 06:45:07;;;;;;;22.05;20.23;;;18.90;99.90;;;20.32;55.52;98019.22;5120160;28;20255;-65
2023/05/09 06:47:40;;;;;;;22.58;20.25;;;18.30;99.90;;;20.22;56.51;98013.81;5111196;29;20205;-65
2023/05/09 06:50:13;;;;;;;21.98;19.83;;;18.30;99.90;;;20.27;58.87;98013.03;5116857;28;20262;-64
2023/05/09 06:52:48;;;;;;;21.40;19.60;;;18.40;99.90;;;20.35;56.46;98014.09;5118078;28;20225;-63
2023/05/09 06:55:21;;;;;;;22.90;20.80;;;18.50;99.90;;;19.91;56.95;98003.59;5110773;28;20204;-64
2023/05/09 06:57:54;;;;;;;21.77;19.77;;;18.20;99.90;;;20.19;58.16;98005.94;5113762;28;20204;-63
2023/05/09 07:00:27;;;;;;;23.70;21.60;;;18.60;99.90;;;19.99;56.24;98002.06;5115105;28;20259;-65
2023/05/09 07:03:00;;;;;;;22.92;20.92;;;18.50;99.90;;;20.18;55.67;98009.41;5110921;28;20718;-63
2023/05/09 07:05:33;;;;;;;21.95;19.98;;;18.60;99.90;;;20.62;55.83;97993.88;5114478;28;20209;-64
2023/05/09 07:08:08;;;;;;;21.75;19.77;;;19.00;99.90;;;21.19;54.22;97996.66;5113130;28;20645;-63
2023/05/09 07:10:41;;;;;;;20.20;18.27;;;19.40;99.90;;;21.10;55.02;97985.25;5113759;28;20628;-63
2023/05/09 07:13:14;;;;;;;23.58;21.48;;;19.40;99.90;;;21.27;53.16;97985.53;5115613;28;20315;-65
2023/05/09 07:15:47;;;;;;;21.17;19.38;;;19.70;99.90;;;21.48;52.84;97979.81;5110553;28;20262;-65
2023/05/09 07:18:20;;;;;;;21.95;19.85;;;19.80;99.90;;;22.03;51.79;97978.06;5114511;28;20216;-68
2023/05/09 07:20:53;;;;;;;22.40;20.30;;;20.30;99.90;;;22.02;50.99;97971.06;5114637;28;20259;-66
2023/05/09 07:23:27;;;;;;;18.90;17.20;;;20.40;99.90;;;22.08;51.04;97975.50;5106351;28;20221;-65
2023/05/09 07:26:00;;;;;;;21.75;19.85;;;20.20;99.90;;;21.59;51.03;97969.59;5114503;28;20679;-67
2023/05/09 07:28:33;;;;;;;19.60;17.92;;;20.10;99.90;;;22.57;50.99;97964.84;5107318;28;20688;-67
2023/05/09 07:31:08;;;;;;;19.88;18.27;;;20.50;99.90;;;22.71;48.99;97973.69;5111410;28;20718;-65
2023/05/09 07:33:41;;;;;;;18.52;17.02;;;20.80;99.90;;;22.99;48.25;97967.06;5113732;28;20223;-67
2023/05/09 07:36:15;;;;;;;19.33;17.67;;;21.00;99.90;;;23.10;46.22;97964.56;5112836;28;20223;-66
2023/05/09 07:38:51;;;;;;;19.45;17.75;;;20.90;99.30;;;23.38;47.17;97958.72;5114838;28;20255;-66
2023/05/09 07:41:25;;;;;;;18.00;16.35;;;21.00;99.90;;;24.13;45.16;97950.50;5115969;28;20208;-65
2023/05/09 07:43:58;;;;;;;19.35;17.85;;;21.50;99.80;;;24.09;44.55;97953.94;5113730;28;20204;-66
2023/05/09 07:46:31;;;;;;;19.38;17.73;;;21.50;98.60;;;23.98;44.83;97950.41;5115170;28;20295;-67
2023/05/09 07:49:04;;;;;;;19.65;18.00;;;21.60;98.50;;;23.99;43.70;97942.59;5114109;28;20606;-66
2023/05/09 07:51:37;;;;;;;17.92;16.52;;;22.00;97.80;;;24.11;44.78;97933.06;5110133;28;20212;-68
2023/05/09 07:54:12;;;;;;;18.55;16.95;;;21.80;98.50;;;23.86;44.19;97934.69;5111623;28;20208;-66
2023/05/09 07:56:45;;;;;;;19.70;17.98;;;21.80;97.90;;;23.07;45.23;97933.22;5117816;28;20218;-65
2023/05/09 07:59:18;;;;;;;18.00;16.45;;;21.40;97.90;;;23.15;48.52;97919.41;5106963;28;20582;-66
2023/05/09 08:01:51;;;;;;;21.00;19.20;;;21.20;99.90;;;22.77;46.40;97916.41;5114064;28;20302;-66
2023/05/09 08:04:24;;;;;;;18.95;17.42;;;21.10;98.30;;;22.59;48.92;97905.81;5123780;28;20641;-65
2023/05/09 08:06:58;;;;;;;18.52;16.98;;;20.90;99.90;;;22.65;47.81;97903.25;5113224;28;20211;-65
2023/05/09 08:09:32;;;;;;;16.35;14.95;;;21.20;99.20;;;22.84;49.17;97892.16;5115366;28;20669;-66
2023/05/09 08:12:06;;;;;;;17.55;16.15;;;21.40;99.70;;;23.11;48.32;97901.97;5105943;28;20231;-65
2023/05/09 08:14:39;;;;;;;17.08;15.68;;;21.70;99.00;;;23.47;45.84;97895.28;5118041;28;20212;-67
2023/05/09 08:17:12;;;;;;;17.88;16.23;;;21.90;97.70;;;23.28;45.87;97894.28;5110991;29;20208;-64
2023/05/09 08:19:45;;;;;;;17.92;16.42;;;22.00;97.50;;;23.05;45.94;97881.06;5113970;28;20314;-65
2023/05/09 08:22:19;;;;;;;16.55;15.15;;;21.60;97.10;;;23.41;47.04;97878.69;5114747;28;20206;-65
2023/05/09 08:24:53;;;;;;;15.35;14.00;;;22.00;97.70;;;23.45;46.08;97870.91;5115660;28;20615;-65
2023/05/09 08:27:26;;;;;;;17.38;15.90;;;22.10;97.30;;;23.41;46.03;97876.09;5118533;28;20210;-66
2023/05/09 08:29:59;;;;;;;17.48;16.00;;;21.80;97.40;;;22.27;46.48;97867.28;5115093;28;20236;-66
2023/05/09 08:32:32;;;;;;;17.98;16.45;;;21.10;96.90;;;22.53;46.10;97871.88;5119410;28;20723;-65
2023/05/09 08:35:07;;;;;;;16.52;15.18;;;21.30;96.40;;;22.51;47.46;97868.38;5120437;28;20208;-66
2023/05/09 08:37:40;;;;;;;16.35;14.95;;;21.30;98.20;;;22.89;46.30;97855.69;5117189;28;20219;-65
2023/05/09 08:40:15;;;;;;;15.50;14.23;;;21.70;97.20;;;23.16;45.12;97858.53;5118729;28;20628;-65
2023/05/09 08:42:50;;;;;;;16.45;15.00;;;22.00;96.10;;;23.07;44.13;97852.41;5117323;28;20213;-65
2023/05/09 08:45:27;;;;;;;15.35;14.05;;;22.00;95.10;;;23.04;44.29;97850.63;5120116;28;20594;-66
2023/05/09 08:48:02;;;;;;;13.68;12.57;;;22.20;94.40;;;22.93;46.36;97850.50;5115202;29;20212;-66
2023/05/09 08:50:35;;;;;;;15.43;14.02;;;22.10;96.20;;;23.00;45.34;97854.06;5119177;28;20228;-66
2023/05/09 08:53:09;;;;;;;15.02;13.73;;;22.20;95.30;;;22.99;44.42;97843.66;5119058;28;20228;-64
2023/05/09 08:55:43;;;;;;;13.98;12.70;;;22.20;94.40;;;23.15;45.61;97846.38;5120386;28;20589;-66
2023/05/09 08:58:21;;;;;;;12.98;11.77;;;22.40;95.60;;;23.25;45.06;97836.88;5112006;28;20766;-65
2023/05/09 09:00:55;;;;;;;13.10;11.98;;;22.30;94.90;;;23.32;42.36;97843.88;5114974;28;20196;-65
2023/05/09 09:03:28;;;;;;;9.82;9.02;;;22.50;93.10;;;23.26;42.20;97838.59;5113194;28;20215;-65
2023/05/09 09:06:01;;;;;;;7.95;7.35;;;22.30;93.00;;;23.28;40.01;97836.00;5114705;28;20579;-68
2023/05/09 09:08:35;;;;;;;10.57;9.68;;;22.50;91.20;;;23.07;42.30;97826.31;5115832;28;20569;-64
2023/05/09 09:11:12;;;;;;;10.70;9.88;;;22.20;92.70;;;23.15;43.27;97824.66;5114174;28;20216;-66
2023/05/09 09:13:46;;;;;;;9.95;9.15;;;22.20;93.60;;;22.96;42.52;97812.34;5115907;28;20208;-66
2023/05/09 09:16:21;;;;;;;10.23;9.25;;;21.90;93.00;;;23.13;42.62;97811.59;5111133;28;20684;-66
2023/05/09 09:18:56;;;;;;;10.52;9.68;;;22.20;92.70;;;23.07;43.58;97805.47;5104142;28;20232;-64
2023/05/09 09:21:32;;;;;;;10.48;9.68;;;22.20;93.40;;;23.14;42.38;97807.22;5109894;28;20281;-68
2023/05/09 09:24:07;;;;;;;12.27;11.27;;;22.50;92.20;;;23.06;44.00;97803.69;5112489;29;20207;-68
2023/05/09 09:26:48;;;;;;;12.80;11.70;;;22.40;93.40;;;23.05;43.86;97786.31;5119426;28;20204;-64
2023/05/09 09:29:21;;;;;;;12.00;10.90;;;22.40;93.80;;;23.09;45.68;97777.63;5107729;28;20589;-64
2023/05/09 09:31:54;;;;;;;10.88;10.05;;;22.40;94.40;;;23.19;45.17;97778.59;5113435;28;20296;-64
2023/05/09 09:34:28;;;;;;;14.00;12.80;;;22.40;94.50;;;23.28;44.31;97778.63;5117452;28;20232;-66
2023/05/09 09:37:01;;;;;;;15.20;13.70;;;22.50;93.70;;;23.29;44.79;97776.03;5117644;28;20258;-65
2023/05/09 09:39:34;;;;;;;14.55;13.35;;;22.60;93.90;;;23.29;45.78;97770.81;5118199;28;20229;-66
2023/05/09 09:42:12;;;;;;;13.68;12.38;;;22.50;94.50;;;23.33;45.18;97767.34;5117839;28;20192;-68
2023/05/09 09:44:45;;;;;;;13.30;12.15;;;22.50;94.50;;;23.40;44.05;97768.25;5113184;28;20604;-64
2023/05/09 09:47:18;;;;;;;10.48;9.57;;;22.70;93.60;;;23.31;45.13;97769.06;5115890;28;20204;-66
2023/05/09 09:49:51;;;;;;;11.20;10.32;;;22.60;94.20;;;23.19;44.31;97763.81;5115514;28;20237;-64
2023/05/09 09:52:25;;;;;;;13.05;11.98;;;22.50;93.40;;;23.28;43.63;97769.06;5116111;28;21760;-68
2023/05/09 09:55:00;;;;;;;12.50;11.50;;;22.50;93.30;;;23.48;45.33;97755.25;5108934;28;20232;-64
2023/05/09 09:57:43;;;;;;;12.95;11.75;;;22.70;94.40;;;23.42;43.66;97757.84;5118620;28;20208;-67
2023/05/09 10:00:20;;;;;;;12.55;11.45;;;23.00;92.80;;;23.14;46.53;97749.84;5113216;28;20790;-66
2023/05/09 10:02:54;;;;;;;13.77;12.52;;;22.60;94.70;;;23.31;45.45;97743.00;5121752;28;20211;-67
2023/05/09 10:05:30;;;;;;;11.88;10.88;;;22.70;94.20;;;23.29;46.32;97739.53;5119067;28;20204;-71
2023/05/09 10:08:06;;;;;;;13.57;12.45;;;22.80;94.60;;;23.26;46.66;97736.88;5112169;28;20258;-67
2023/05/09 10:10:39;;;;;;;15.70;14.30;;;22.60;94.90;;;23.25;47.41;97736.88;5113471;29;20240;-64
2023/05/09 10:13:14;;;;;;;18.92;17.33;;;22.60;95.50;;;23.19;47.18;97737.72;5105150;28;20728;-64
2023/05/09 10:15:47;;;;;;;16.35;14.82;;;22.60;95.00;;;23.26;47.34;97731.66;5112475;28;20271;-66
2023/05/09 10:18:29;;;;;;;18.30;16.80;;;22.50;95.50;;;23.26;47.47;97718.63;5115414;28;20236;-65
2023/05/09 10:21:04;;;;;;;14.65;13.45;;;22.50;95.70;;;23.17;47.68;97708.16;5113006;28;20601;-65
2023/05/09 10:23:38;;;;;;;16.45;14.88;;;22.50;95.80;;;23.39;46.90;97711.72;5109977;28;20303;-68
2023/05/09 10:26:18;;;;;;;16.70;15.25;;;22.60;95.40;;;23.33;47.59;97703.88;5112051;29;20436;-68
2023/05/09 10:28:55;;;;;;;17.60;16.10;;;22.60;95.80;;;22.98;48.17;97711.53;5109035;28;20232;-65
2023/05/09 10:31:32;;;;;;;18.58;16.98;;;22.40;96.10;;;22.54;49.30;97710.34;5112540;28;20305;-64